La Grange, TX

11:59 PM CST on December 07, 2016 (GMT -0600)
Rural LaGrange on the Bluff | | Change Station

Elev 420 ft 29.88 °N, 96.87 °W | Updated 2 seconds ago

Overcast
Overcast
54.9 °F
Feels Like 54.9 °F
N
4.0
Wind Variable Wind from NW
Gusts 4.9 mph

Today
High -- | Low -- °F
--% Chance of Precip.
Yesterday
High -- | Low -- °F
Precip. -- in
Pressure 30.19 in
Visibility 10.0 miles
Clouds Scattered Clouds 1900 ft
Overcast 2500 ft
Dew Point 43 °F
Humidity 64%
Rainfall 0.00 in
Snow Depth Not available.
7:10 AM 5:27 PM
First Quarter, 60% visible
METAR K3T5 080555Z AUTO 01006KT 10SM SCT019 OVC025 13/10 A3019 RMK AO2 T01300101 10144 20130 401580052
Pressure 30.19 in
Visibility 10.0 miles
Clouds Scattered Clouds 1900 ft
Overcast 2500 ft
Dew Point 43 °F
Humidity 64%
Rainfall 0.00 in
Snow Depth Not available.
7:10 AM 5:27 PM
First Quarter, 60% visible
METAR K3T5 080555Z AUTO 01006KT 10SM SCT019 OVC025 13/10 A3019 RMK AO2 T01300101 10144 20130 401580052

10-Day Weather Forecast

Almanac

Astronomy

Dec. 07, 2016 Rise Set
Actual Time
Civil Twilight
Nautical Twilight
Astronomical Twilight
Moon
Length of Visible Light
Length of Day
Tomorrow will be .
, % of the Moon is Illuminated

Today's Extremes

State Highs State Lows

Community

WunderPhotos

Upload Photos

1,956,259 photos uploaded!

WunderBlog® & News

Nearby

Air Quality

  Air Quality AQ Index Pollutant
Not available.

Snow Depth

Station Depth Elevation

Earthquake Activity

City Distance Mag. Time & Date
Minimum magnitude displayed is 2.5.

Coastal Water Temperatures

Place Temperature

Stations

Nearby Weather Stations

Station Location Temp. Windchill Dew Point Humidity Wind Precip. Elev Updated Type
                   

Watches & Warnings

There are currently no watches in effect.